1918 NOT_NAMED (1918190N17112)


IBTrACS version v04r00. Visit IBTrACS website for data access.
Please direct all questions to the IBTrACS Q and A forum

Storm track - Intensity - Wind Radii - Intensity Data - Source Data - All data

Summary Information

Storm ID 1918190N17112
Start Jul 8 22Z
Landfall Jul 10 15Z
End Jul 12 22Z
ATCF IDs
Track status Best track data.

Storm track plot

Map of storm track

Intensity plots

No Intensity information for this storm


Radial wind information

No radial wind information for this storm


Position and Intensity Table

BASIN ISO_TIME_________ NATURE LAT LON
degrees north degrees east
WP 1918-07-08 22:00:00 NR 17.30 111.60
WP 1918-07-09 00:00:00 NR 17.35 111.58
WP 03:00:00 NR 17.42 111.54
WP 06:00:00 NR 17.49 111.49
WP 09:00:00 NR 17.57 111.42
WP 10:00:00 NR 17.60 111.40
WP 12:00:00 NR 17.66 111.34
WP 15:00:00 NR 17.75 111.25
WP 18:00:00 NR 17.85 111.14
WP 21:00:00 NR 17.96 111.04
WP 22:00:00 NR 18.00 111.00
WP 1918-07-10 00:00:00 NR 18.07 110.94
WP 03:00:00 NR 18.19 110.84
WP 06:00:00 NR 18.31 110.74
WP 09:00:00 NR 18.45 110.64
WP 10:00:00 NR 18.50 110.60
WP 12:00:00 NR 18.61 110.52
WP 15:00:00 NR 18.80 110.39
WP 18:00:00 NR 18.98 110.26
WP 21:00:00 NR 19.15 110.14
WP 22:00:00 NR 19.20 110.10
WP 1918-07-11 00:00:00 NR 19.28 110.04
WP 03:00:00 NR 19.39 109.95
WP 06:00:00 NR 19.48 109.88
WP 09:00:00 NR 19.57 109.82
WP 10:00:00 NR 19.60 109.80
WP 12:00:00 NR 19.67 109.76
WP 15:00:00 NR 19.77 109.70
WP 18:00:00 NR 19.87 109.65
WP 21:00:00 NR 19.97 109.61
WP 22:00:00 NR 20.00 109.60
WP 1918-07-12 00:00:00 NR 20.07 109.58
WP 03:00:00 NR 20.17 109.55
WP 06:00:00 NR 20.27 109.53
WP 09:00:00 NR 20.37 109.51
WP 10:00:00 NR 20.40 109.50
WP 12:00:00 NR 20.46 109.49
WP 15:00:00 NR 20.54 109.46
WP 18:00:00 NR 20.61 109.44
WP 21:00:00 NR 20.68 109.41
WP 22:00:00 NR 20.70 109.40

Source Information

Agency Information
USA
TOKYO
CMA
HKO
NEWDELHI
REUNION
BOM
NADI
WELLINGTON
DS824
TD9636 cons_worldwide_trop_cyclone_18710101-19891231-003:Line=5712
TD9635
NEUMANN
MLC

All available IBTrACS Data

SEASON BASIN SUBBASIN ISO_TIME_________ NATURE LAT LON DIST2LAND LANDFALL IFLAG USA SSHS TD9636 LAT TD9636 LON TD9636 STAGE STORM SPEED STORM DIR
Year degrees north degrees east km km 1 degrees north degrees east kts degrees
1918 WP MM 1918-07-08 22:00:00 NR 17.30 111.60 201 201 __________O___ -1 17.30 111.60 7 2 0
1918 WP MM 1918-07-09 00:00:00 NR 17.35 111.58 201 186 __________P___ -1 17.35 111.58 7 2 334
1918 WP MM 03:00:00 NR 17.42 111.54 186 177 __________P___ -1 17.42 111.54 7 2 328
1918 WP MM 06:00:00 NR 17.49 111.49 177 162 __________P___ -1 17.49 111.49 7 2 326
1918 WP MM 09:00:00 NR 17.57 111.42 162 162 __________P___ -1 17.57 111.42 7 2 325
1918 WP MM 10:00:00 NR 17.60 111.40 162 146 __________O___ -1 17.60 111.40 7 2 317
1918 WP MM 12:00:00 NR 17.66 111.34 146 131 __________P___ -1 17.66 111.34 7 3 317
1918 WP MM 15:00:00 NR 17.75 111.25 131 116 __________P___ -1 17.75 111.25 7 3 316
1918 WP MM 18:00:00 NR 17.85 111.14 116 100 __________P___ -1 17.85 111.14 7 3 316
1918 WP MM 21:00:00 NR 17.96 111.04 100 100 __________P___ -1 17.96 111.04 7 3 317
1918 WP MM 22:00:00 NR 18.00 111.00 100 85 __________O___ -1 18.00 111.00 7 3 318
1918 WP MM 1918-07-10 00:00:00 NR 18.07 110.94 85 70 __________P___ -1 18.07 110.94 7 3 321
1918 WP MM 03:00:00 NR 18.19 110.84 70 54 __________P___ -1 18.19 110.84 7 3 322
1918 WP MM 06:00:00 NR 18.31 110.74 54 30 __________P___ -1 18.31 110.74 7 3 324
1918 WP MM 09:00:00 NR 18.45 110.64 30 30 __________P___ -1 18.45 110.64 7 3 325
1918 WP MM 10:00:00 NR 18.50 110.60 30 15 __________O___ -1 18.50 110.60 7 4 325
1918 WP MM 12:00:00 NR 18.61 110.52 15 0 __________P___ -1 18.61 110.52 7 4 326
1918 WP MM 15:00:00 NR 18.80 110.39 0 0 __________P___ -1 18.80 110.39 7 4 326
1918 WP MM 18:00:00 NR 18.98 110.26 0 0 __________P___ -1 18.98 110.26 7 4 326
1918 WP MM 21:00:00 NR 19.15 110.14 0 0 __________P___ -1 19.15 110.14 7 4 326
1918 WP MM 22:00:00 NR 19.20 110.10 0 0 __________O___ -1 19.20 110.10 7 3 323
1918 WP MM 1918-07-11 00:00:00 NR 19.28 110.04 0 0 __________P___ -1 19.28 110.04 7 3 324
1918 WP MM 03:00:00 NR 19.39 109.95 0 0 __________P___ -1 19.39 109.95 7 2 324
1918 WP MM 06:00:00 NR 19.48 109.88 0 0 __________P___ -1 19.48 109.88 7 2 325
1918 WP MM 09:00:00 NR 19.57 109.82 0 0 __________P___ -1 19.57 109.82 7 2 325
1918 WP MM 10:00:00 NR 19.60 109.80 0 0 __________O___ -1 19.60 109.80 7 2 329
1918 WP MM 12:00:00 NR 19.67 109.76 0 0 __________P___ -1 19.67 109.76 7 2 331
1918 WP MM 15:00:00 NR 19.77 109.70 0 0 __________P___ -1 19.77 109.70 7 2 333
1918 WP MM 18:00:00 NR 19.87 109.65 0 0 __________P___ -1 19.87 109.65 7 2 335
1918 WP MM 21:00:00 NR 19.97 109.61 11 11 __________P___ -1 19.97 109.61 7 2 339
1918 WP MM 22:00:00 NR 20.00 109.60 11 11 __________O___ -1 20.00 109.60 7 2 336
1918 WP MM 1918-07-12 00:00:00 NR 20.07 109.58 22 22 __________P___ -1 20.07 109.58 7 2 348
1918 WP MM 03:00:00 NR 20.17 109.55 31 33 __________P___ -1 20.17 109.55 7 2 349
1918 WP MM 06:00:00 NR 20.27 109.53 38 33 __________P___ -1 20.27 109.53 7 2 347
1918 WP MM 09:00:00 NR 20.37 109.51 33 33 __________P___ -1 20.37 109.51 7 2 0
1918 WP MM 10:00:00 NR 20.40 109.50 33 31 __________O___ -1 20.40 109.50 7 2 349
1918 WP MM 12:00:00 NR 20.46 109.49 31 31 __________P___ -1 20.46 109.49 7 2 341
1918 WP MM 15:00:00 NR 20.54 109.46 31 30 __________P___ -1 20.54 109.46 7 2 343
1918 WP MM 18:00:00 NR 20.61 109.44 38 33 __________P___ -1 20.61 109.44 7 2 338
1918 WP MM 21:00:00 NR 20.68 109.41 33 33 __________P___ -1 20.68 109.41 7 1 342
1918 WP MM 22:00:00 NR 20.70 109.40 33 __________O___ -1 20.70 109.40 7 1 0